Time;durP1;ratioP1;P1;durP2;ratioP2;P2;SDS_P1;SDS_P2;PMS_P1;PMS_P2;Temp;Humidity;BMP_temperature;BMP_pressure;BME280_temperature;BME280_humidity;BME280_pressure;Samples;Min_cycle;Max_cycle;Signal;HPM_P1;HPM_P2
2021/09/05 00:01:24;;;;;;;19.53;12.17;;;16.50;99.90;;;;;;4997421;28;20301;-50
2021/09/05 00:03:51;;;;;;;17.47;11.73;;;16.40;99.90;;;;;;4998888;28;20589;-50
2021/09/05 00:06:18;;;;;;;18.70;12.57;;;16.50;99.90;;;;;;4999280;28;20212;-50
2021/09/05 00:08:45;;;;;;;16.13;11.27;;;16.40;99.90;;;;;;4995249;28;20284;-51
2021/09/05 00:11:12;;;;;;;18.17;11.97;;;16.50;99.90;;;;;;4998398;28;20512;-50
2021/09/05 00:13:39;;;;;;;21.33;12.37;;;16.50;99.90;;;;;;4998738;28;20716;-50
2021/09/05 00:16:05;;;;;;;16.13;11.07;;;16.50;99.90;;;;;;4997374;28;20280;-50
2021/09/05 00:18:32;;;;;;;18.67;13.03;;;16.50;99.90;;;;;;4995233;28;20220;-50
2021/09/05 00:20:59;;;;;;;17.67;11.80;;;16.50;99.90;;;;;;4997221;28;20312;-50
2021/09/05 00:23:26;;;;;;;19.70;12.23;;;16.30;99.90;;;;;;4996457;28;20339;-50
2021/09/05 00:25:53;;;;;;;19.23;11.53;;;16.10;99.90;;;;;;4998737;28;20228;-50
2021/09/05 00:28:20;;;;;;;18.37;12.27;;;16.20;99.90;;;;;;4999003;28;20309;-50
2021/09/05 00:30:46;;;;;;;15.33;11.23;;;16.20;99.90;;;;;;4996626;28;20200;-50
2021/09/05 00:33:13;;;;;;;17.07;12.00;;;16.20;99.90;;;;;;4997906;28;20599;-50
2021/09/05 00:35:40;;;;;;;15.50;11.03;;;16.20;99.90;;;;;;4995947;28;21824;-50
2021/09/05 00:38:07;;;;;;;16.97;11.20;;;16.20;99.90;;;;;;5014267;28;20854;-50
2021/09/05 00:40:34;;;;;;;19.70;11.73;;;16.20;99.90;;;;;;4995467;28;21025;-50
2021/09/05 00:43:00;;;;;;;19.20;11.90;;;16.20;99.90;;;;;;5000632;28;20215;-51
2021/09/05 00:45:27;;;;;;;17.67;11.17;;;16.10;99.90;;;;;;4997949;28;20228;-50
2021/09/05 00:47:54;;;;;;;19.53;11.33;;;16.10;99.90;;;;;;5013909;28;20202;-50
2021/09/05 00:50:21;;;;;;;16.00;11.87;;;16.20;99.90;;;;;;4993552;28;20638;-50
2021/09/05 00:52:48;;;;;;;17.53;12.10;;;16.10;99.90;;;;;;4993825;28;20243;-50
2021/09/05 00:55:15;;;;;;;18.97;11.40;;;16.10;99.90;;;;;;4993947;28;20282;-50
2021/09/05 00:57:44;;;;;;;19.07;11.73;;;16.10;99.90;;;;;;4999237;28;20283;-50
2021/09/05 01:00:12;;;;;;;16.03;10.87;;;16.00;99.90;;;;;;4996017;28;20268;-50
2021/09/05 01:02:39;;;;;;;17.80;11.43;;;15.90;99.90;;;;;;4998926;28;20581;-50
2021/09/05 01:05:06;;;;;;;14.87;11.03;;;15.90;99.90;;;;;;4997660;28;20275;-49
2021/09/05 01:07:34;;;;;;;19.13;11.17;;;15.90;99.90;;;;;;4995933;28;20208;-50
2021/09/05 01:10:01;;;;;;;17.70;11.30;;;15.90;99.90;;;;;;4995047;28;20272;-50
2021/09/05 01:12:28;;;;;;;15.77;10.60;;;16.00;99.90;;;;;;4997872;28;20223;-51
2021/09/05 01:14:55;;;;;;;14.00;10.63;;;15.90;99.90;;;;;;4998661;28;20342;-50
2021/09/05 01:17:21;;;;;;;17.30;11.30;;;15.80;99.90;;;;;;4998704;28;20198;-50
2021/09/05 01:19:49;;;;;;;18.77;11.00;;;15.80;99.90;;;;;;4996423;28;20354;-50
2021/09/05 01:22:16;;;;;;;19.53;12.00;;;15.80;99.90;;;;;;4998950;28;20340;-50
2021/09/05 01:24:43;;;;;;;18.00;12.27;;;15.70;99.90;;;;;;4996593;28;20577;-50
2021/09/05 01:27:10;;;;;;;20.60;12.30;;;15.60;99.90;;;;;;5013110;28;20295;-50
2021/09/05 01:29:36;;;;;;;17.07;11.50;;;15.60;99.90;;;;;;4996664;28;20231;-51
2021/09/05 01:32:04;;;;;;;17.83;12.07;;;15.50;99.90;;;;;;4996918;28;20246;-50
2021/09/05 01:34:31;;;;;;;20.73;12.43;;;15.50;99.90;;;;;;4995729;28;20668;-50
2021/09/05 01:36:57;;;;;;;19.70;11.83;;;15.60;99.90;;;;;;4999546;28;20207;-50
2021/09/05 01:39:24;;;;;;;17.77;11.97;;;15.50;99.90;;;;;;4998770;28;20646;-50
2021/09/05 01:41:51;;;;;;;18.27;11.70;;;15.40;99.90;;;;;;4997601;28;20290;-50
2021/09/05 01:44:21;;;;;;;19.37;11.03;;;15.40;99.90;;;;;;4999347;28;20273;-50
2021/09/05 01:46:49;;;;;;;17.30;11.87;;;15.50;99.90;;;;;;4997983;28;20491;-50
2021/09/05 01:49:16;;;;;;;19.30;11.20;;;15.30;99.90;;;;;;4989766;28;20239;-51
2021/09/05 01:51:43;;;;;;;16.20;11.70;;;15.20;99.90;;;;;;4999954;28;20715;-50
2021/09/05 01:54:09;;;;;;;20.03;12.03;;;15.30;99.90;;;;;;4996692;28;20203;-50
2021/09/05 01:56:36;;;;;;;18.57;11.13;;;15.30;99.90;;;;;;4996609;28;20194;-50
2021/09/05 01:59:03;;;;;;;19.60;11.40;;;15.20;99.90;;;;;;4996732;28;20279;-50
2021/09/05 02:01:31;;;;;;;21.23;12.17;;;15.30;99.90;;;;;;5001715;28;20298;-50
2021/09/05 02:03:59;;;;;;;14.53;10.97;;;15.30;99.90;;;;;;4997905;28;20200;-51
2021/09/05 02:06:27;;;;;;;19.97;12.40;;;15.10;99.90;;;;;;4995305;28;20956;-50
2021/09/05 02:08:55;;;;;;;19.00;12.43;;;15.10;99.90;;;;;;4997571;28;20700;-50
2021/09/05 02:11:22;;;;;;;18.43;11.70;;;15.10;99.90;;;;;;4998220;28;20231;-50
2021/09/05 02:13:49;;;;;;;16.00;11.47;;;15.00;99.90;;;;;;4995856;28;20305;-50
2021/09/05 02:16:16;;;;;;;18.63;11.73;;;15.00;99.90;;;;;;4999227;28;20392;-50
2021/09/05 02:18:43;;;;;;;17.47;11.63;;;15.10;99.90;;;;;;4996755;28;20214;-50
2021/09/05 02:21:10;;;;;;;19.37;11.63;;;15.10;99.90;;;;;;4998212;28;20332;-50
2021/09/05 02:23:37;;;;;;;16.00;11.03;;;15.10;99.90;;;;;;5000068;28;20244;-50
2021/09/05 02:26:04;;;;;;;16.70;11.30;;;15.20;99.90;;;;;;4998674;28;20282;-51
2021/09/05 02:28:31;;;;;;;17.23;11.17;;;15.10;99.90;;;;;;5003214;28;20583;-51
2021/09/05 02:30:58;;;;;;;17.53;9.90;;;15.00;99.90;;;;;;5003329;28;20298;-51
2021/09/05 02:33:25;;;;;;;16.47;10.27;;;14.80;99.90;;;;;;5002140;28;20353;-51
2021/09/05 02:35:51;;;;;;;20.67;11.97;;;14.90;99.90;;;;;;4999036;28;20576;-50
2021/09/05 02:38:18;;;;;;;19.00;11.27;;;14.90;99.90;;;;;;5001592;28;20395;-50
2021/09/05 02:40:46;;;;;;;20.60;11.40;;;14.90;99.90;;;;;;4998064;28;20303;-50
2021/09/05 02:43:13;;;;;;;16.27;10.67;;;15.00;99.90;;;;;;5002405;28;20718;-50
2021/09/05 02:45:39;;;;;;;21.37;11.87;;;14.90;99.90;;;;;;5000706;28;20201;-50
2021/09/05 02:48:06;;;;;;;17.43;10.57;;;14.70;99.90;;;;;;4998205;28;20281;-50
2021/09/05 02:50:33;;;;;;;19.43;11.70;;;14.80;99.90;;;;;;5001564;28;20512;-50
2021/09/05 02:53:00;;;;;;;17.47;11.03;;;14.90;99.90;;;;;;5000183;28;20252;-51
2021/09/05 02:55:26;;;;;;;17.00;11.23;;;14.80;99.90;;;;;;4996658;28;20284;-50
2021/09/05 02:57:53;;;;;;;20.57;11.97;;;14.80;99.90;;;;;;4997545;28;20289;-51
2021/09/05 03:00:21;;;;;;;19.47;10.80;;;14.80;99.90;;;;;;4999959;28;20335;-50
2021/09/05 03:02:49;;;;;;;19.37;11.70;;;14.80;99.90;;;;;;5001588;28;20613;-50
2021/09/05 03:05:16;;;;;;;18.57;10.73;;;14.60;99.90;;;;;;5001654;28;20191;-50
2021/09/05 03:07:43;;;;;;;19.07;11.93;;;14.60;99.90;;;;;;5003180;28;20309;-50
2021/09/05 03:10:10;;;;;;;19.10;10.93;;;14.60;99.90;;;;;;5001802;28;20321;-50
2021/09/05 03:12:37;;;;;;;22.20;11.70;;;14.70;99.90;;;;;;4998375;28;20217;-50
2021/09/05 03:15:05;;;;;;;20.67;11.53;;;14.50;99.90;;;;;;5003634;28;20660;-50
2021/09/05 03:17:33;;;;;;;20.23;10.80;;;14.60;99.90;;;;;;5000496;28;20225;-50
2021/09/05 03:19:59;;;;;;;16.43;9.90;;;14.50;99.90;;;;;;5000831;28;20216;-50
2021/09/05 03:22:26;;;;;;;16.37;10.30;;;14.50;99.90;;;;;;5003789;28;20278;-50
2021/09/05 03:24:53;;;;;;;20.60;12.27;;;14.50;99.90;;;;;;4997665;28;20751;-50
2021/09/05 03:27:19;;;;;;;19.43;11.40;;;14.50;99.90;;;;;;5001450;28;20230;-50
2021/09/05 03:29:48;;;;;;;19.00;11.13;;;14.30;99.90;;;;;;5015249;28;20284;-50
2021/09/05 03:32:15;;;;;;;21.90;11.27;;;14.40;99.90;;;;;;5002179;28;20762;-50
2021/09/05 03:34:41;;;;;;;16.07;10.73;;;14.50;99.90;;;;;;5004132;28;20314;-50
2021/09/05 03:37:08;;;;;;;20.30;10.10;;;14.50;99.90;;;;;;5003224;28;20330;-49
2021/09/05 03:39:35;;;;;;;18.03;10.60;;;14.50;99.90;;;;;;5000858;28;20365;-50
2021/09/05 03:42:02;;;;;;;17.97;11.27;;;14.50;99.90;;;;;;5002309;28;20640;-49
2021/09/05 03:44:29;;;;;;;19.07;10.50;;;14.50;99.90;;;;;;5002191;28;20305;-49
2021/09/05 03:46:55;;;;;;;16.67;10.60;;;14.40;99.90;;;;;;5000493;28;20199;-50
2021/09/05 03:49:22;;;;;;;22.73;10.37;;;14.40;99.90;;;;;;5003870;28;20285;-50
2021/09/05 03:51:49;;;;;;;15.50;9.37;;;14.40;99.90;;;;;;5005566;28;20287;-50
2021/09/05 03:54:16;;;;;;;22.30;10.53;;;14.40;99.90;;;;;;4999611;28;20270;-50
2021/09/05 03:56:43;;;;;;;17.10;10.63;;;14.40;99.90;;;;;;5002435;28;20659;-50
2021/09/05 03:59:09;;;;;;;16.67;10.43;;;14.50;99.90;;;;;;4999098;28;20292;-50
2021/09/05 04:01:36;;;;;;;17.90;9.70;;;14.50;99.90;;;;;;5002084;28;20635;-50
2021/09/05 04:04:03;;;;;;;18.77;10.00;;;14.40;99.90;;;;;;5000438;28;20293;-50
2021/09/05 04:06:30;;;;;;;15.23;9.47;;;14.50;99.90;;;;;;4999494;28;20243;-50
2021/09/05 04:09:08;;;;;;;23.00;9.90;;;14.50;99.90;;;;;;5001466;28;20889;-50
2021/09/05 04:11:35;;;;;;;19.63;10.80;;;14.30;99.90;;;;;;5002220;28;20241;-50
2021/09/05 04:14:03;;;;;;;15.73;9.53;;;14.40;99.90;;;;;;5015788;28;20235;-50
2021/09/05 04:16:29;;;;;;;16.50;10.33;;;14.40;99.90;;;;;;5001343;28;20610;-50
2021/09/05 04:18:56;;;;;;;17.20;9.27;;;14.40;99.90;;;;;;4998281;28;20289;-50
2021/09/05 04:21:23;;;;;;;16.63;9.67;;;14.50;99.90;;;;;;5001109;28;20249;-50
2021/09/05 04:23:50;;;;;;;15.07;8.77;;;14.50;99.90;;;;;;4996207;28;20288;-50
2021/09/05 04:26:17;;;;;;;15.23;9.43;;;14.40;99.90;;;;;;4999314;28;20400;-50
2021/09/05 04:28:43;;;;;;;19.87;10.53;;;14.30;99.90;;;;;;4999038;28;20612;-51
2021/09/05 04:31:10;;;;;;;18.97;9.43;;;14.30;99.90;;;;;;4999668;28;20302;-50
2021/09/05 04:33:37;;;;;;;18.50;10.27;;;14.30;99.90;;;;;;4999122;28;20209;-50
2021/09/05 04:36:04;;;;;;;19.43;9.83;;;14.20;99.90;;;;;;5001303;28;20567;-50
2021/09/05 04:38:30;;;;;;;18.10;9.77;;;14.10;99.90;;;;;;4999903;28;20206;-50
2021/09/05 04:40:57;;;;;;;20.60;10.40;;;14.00;99.90;;;;;;5001606;28;20303;-50
2021/09/05 04:43:24;;;;;;;16.90;9.53;;;14.00;99.90;;;;;;4998919;28;20233;-50
2021/09/05 04:45:50;;;;;;;17.80;10.03;;;14.10;99.90;;;;;;4996640;28;20648;-49
2021/09/05 04:48:17;;;;;;;17.00;9.50;;;14.10;99.90;;;;;;4998677;28;20199;-49
2021/09/05 04:50:46;;;;;;;15.80;9.40;;;14.10;99.90;;;;;;4996798;28;20467;-49
2021/09/05 04:53:13;;;;;;;17.50;9.63;;;14.10;99.90;;;;;;5000295;28;20735;-49
2021/09/05 04:55:40;;;;;;;17.00;10.10;;;14.10;99.90;;;;;;4997962;28;20293;-49
2021/09/05 04:58:06;;;;;;;17.87;9.47;;;14.10;99.90;;;;;;4996218;28;20234;-49
2021/09/05 05:00:33;;;;;;;19.07;10.10;;;14.10;99.90;;;;;;4998142;28;20342;-49
2021/09/05 05:03:00;;;;;;;16.80;9.90;;;14.00;99.90;;;;;;4998345;28;20195;-52
2021/09/05 05:05:28;;;;;;;16.20;9.30;;;14.00;99.90;;;;;;4999230;28;20295;-49
2021/09/05 05:07:55;;;;;;;16.53;9.47;;;14.00;99.90;;;;;;5001213;28;20660;-50
2021/09/05 05:10:22;;;;;;;19.73;10.27;;;13.80;99.90;;;;;;4999929;28;20636;-50
2021/09/05 05:12:49;;;;;;;17.63;10.70;;;13.80;99.90;;;;;;5000693;28;20301;-49
2021/09/05 05:15:16;;;;;;;17.90;10.33;;;13.70;99.90;;;;;;5000116;28;20287;-50
2021/09/05 05:17:42;;;;;;;15.70;8.70;;;13.60;99.90;;;;;;5000582;28;20706;-50
2021/09/05 05:20:11;;;;;;;20.13;10.07;;;13.80;99.90;;;;;;4998300;28;20233;-49
2021/09/05 05:22:39;;;;;;;19.97;10.77;;;13.70;99.90;;;;;;4997234;28;20254;-49
2021/09/05 05:25:07;;;;;;;17.37;9.37;;;13.60;99.90;;;;;;4997129;28;20227;-49
2021/09/05 05:27:35;;;;;;;16.07;9.10;;;13.60;99.90;;;;;;4997044;28;20247;-50
2021/09/05 05:30:02;;;;;;;19.30;9.33;;;13.70;99.90;;;;;;4999975;28;20643;-49
2021/09/05 05:32:29;;;;;;;17.17;10.10;;;13.70;99.90;;;;;;4998340;28;20348;-49
2021/09/05 05:34:56;;;;;;;18.00;9.33;;;13.70;99.90;;;;;;5001328;28;20687;-50
2021/09/05 05:37:23;;;;;;;17.97;9.77;;;13.80;99.90;;;;;;4999045;28;20229;-50
2021/09/05 05:39:49;;;;;;;19.07;10.10;;;13.70;99.90;;;;;;4994829;28;20281;-49
2021/09/05 05:42:16;;;;;;;15.03;9.30;;;13.80;99.90;;;;;;4988392;28;20302;-50
2021/09/05 05:44:43;;;;;;;16.57;9.57;;;13.80;99.90;;;;;;5000192;28;20316;-49
2021/09/05 05:47:09;;;;;;;17.40;9.27;;;13.70;99.90;;;;;;4997215;28;20251;-49
2021/09/05 05:49:39;;;;;;;16.33;9.27;;;13.70;99.90;;;;;;4998731;28;20190;-50
2021/09/05 05:52:05;;;;;;;19.27;9.83;;;13.80;99.90;;;;;;4997497;28;20251;-49
2021/09/05 05:54:32;;;;;;;17.03;8.53;;;13.90;99.90;;;;;;4994312;28;20289;-49
2021/09/05 05:56:59;;;;;;;19.17;10.67;;;13.80;99.90;;;;;;4995930;28;20618;-49
2021/09/05 05:59:26;;;;;;;17.57;9.87;;;13.90;99.90;;;;;;4998007;28;20194;-50
2021/09/05 06:01:52;;;;;;;18.73;9.63;;;14.00;99.90;;;;;;4994365;28;20326;-49
2021/09/05 06:04:20;;;;;;;22.03;9.80;;;14.10;99.90;;;;;;4999098;28;20338;-49
2021/09/05 06:06:46;;;;;;;21.10;10.53;;;14.00;99.90;;;;;;4992899;28;20240;-49
2021/09/05 06:09:15;;;;;;;16.60;9.27;;;14.00;99.90;;;;;;4997240;28;20660;-49
2021/09/05 06:11:42;;;;;;;20.97;9.93;;;14.00;99.90;;;;;;4999730;28;20558;-50
2021/09/05 06:14:08;;;;;;;17.83;9.50;;;14.10;99.90;;;;;;5000106;28;20679;-49
2021/09/05 06:16:35;;;;;;;18.47;10.20;;;14.10;99.90;;;;;;4998335;28;20704;-49
2021/09/05 06:19:02;;;;;;;16.00;9.13;;;14.20;99.90;;;;;;5000798;28;20659;-50
2021/09/05 06:21:29;;;;;;;20.47;10.33;;;14.10;99.90;;;;;;4996518;28;20307;-50
2021/09/05 06:23:56;;;;;;;17.03;8.90;;;14.10;99.90;;;;;;4998553;28;20283;-49
2021/09/05 06:26:23;;;;;;;16.03;8.93;;;14.10;99.90;;;;;;4998474;28;20245;-50
2021/09/05 06:28:50;;;;;;;16.27;9.20;;;14.20;99.90;;;;;;4998471;28;20286;-50
2021/09/05 06:31:16;;;;;;;20.37;9.33;;;14.20;99.90;;;;;;4994359;28;20345;-50
2021/09/05 06:33:43;;;;;;;16.20;9.27;;;14.30;99.90;;;;;;4998024;28;20200;-50
2021/09/05 06:36:10;;;;;;;16.13;9.10;;;14.20;99.90;;;;;;4998230;28;20212;-49
2021/09/05 06:38:36;;;;;;;15.80;9.40;;;14.10;99.90;;;;;;4992138;28;20204;-50
2021/09/05 06:41:03;;;;;;;13.67;9.43;;;14.30;99.90;;;;;;4995423;28;20210;-50
2021/09/05 06:43:30;;;;;;;18.70;8.87;;;14.30;99.90;;;;;;4996251;28;20581;-50
2021/09/05 06:45:57;;;;;;;15.87;8.80;;;14.30;99.90;;;;;;4994840;28;20290;-49
2021/09/05 06:48:40;;;;;;;16.17;9.57;;;14.30;99.90;;;;;;4992638;28;20205;-50
2021/09/05 06:51:08;;;;;;;14.30;8.63;;;14.50;99.90;;;;;;4994213;28;20289;-50
2021/09/05 06:53:35;;;;;;;16.43;9.27;;;14.70;99.90;;;;;;4994152;28;20261;-50
2021/09/05 06:56:01;;;;;;;20.37;9.77;;;14.70;99.90;;;;;;4990536;28;20239;-50
2021/09/05 06:58:28;;;;;;;15.90;8.90;;;14.80;99.90;;;;;;4995414;28;20233;-50
2021/09/05 07:00:55;;;;;;;16.50;9.83;;;14.90;99.90;;;;;;4998179;28;20226;-49
2021/09/05 07:03:22;;;;;;;14.07;8.37;;;15.10;99.90;;;;;;4996612;28;20204;-50
2021/09/05 07:05:49;;;;;;;16.97;9.60;;;15.10;99.90;;;;;;5012520;28;20226;-50
2021/09/05 07:08:16;;;;;;;15.67;8.87;;;15.30;99.90;;;;;;4994971;28;20375;-50
2021/09/05 07:10:42;;;;;;;16.10;9.17;;;15.20;99.90;;;;;;4999881;28;20288;-49
2021/09/05 07:13:10;;;;;;;16.73;9.07;;;15.30;99.90;;;;;;5001814;28;20239;-49
2021/09/05 07:15:37;;;;;;;12.53;8.83;;;15.50;99.90;;;;;;5000324;28;20195;-50
2021/09/05 07:18:04;;;;;;;15.07;9.63;;;15.70;99.90;;;;;;5014071;28;20207;-50
2021/09/05 07:20:31;;;;;;;19.70;9.50;;;15.90;99.90;;;;;;5001474;28;20324;-49
2021/09/05 07:22:58;;;;;;;14.57;9.20;;;16.00;65.30;;;;;;5000593;28;20285;-49
2021/09/05 07:25:27;;;;;;;13.03;8.30;;;16.10;14.30;;;;;;4995967;28;20287;-49
2021/09/05 07:27:54;;;;;;;15.53;8.13;;;16.20;1.00;;;;;;5002277;28;20613;-49
2021/09/05 07:30:21;;;;;;;15.13;8.90;;;16.30;10.80;;;;;;4998563;28;20209;-51
2021/09/05 07:32:48;;;;;;;15.70;8.30;;;16.30;1.00;;;;;;5000391;28;20335;-50
2021/09/05 07:35:15;;;;;;;13.03;8.17;;;16.40;1.00;;;;;;5012491;28;20209;-49
2021/09/05 07:37:46;;;;;;;13.50;7.57;;;16.50;1.00;;;;;;4999972;28;20692;-49
2021/09/05 07:40:14;;;;;;;19.37;8.10;;;16.50;1.00;;;;;;4997887;28;20273;-50
2021/09/05 07:42:42;;;;;;;13.50;8.50;;;16.40;1.00;;;;;;4997504;28;20313;-50
2021/09/05 07:45:09;;;;;;;14.70;8.23;;;16.40;1.00;;;;;;5002616;28;20315;-50
2021/09/05 07:47:36;;;;;;;13.93;7.73;;;16.40;1.00;;;;;;4999274;28;20293;-50
2021/09/05 07:50:03;;;;;;;14.33;8.30;;;16.40;1.00;;;;;;4999031;28;20288;-50
2021/09/05 07:52:31;;;;;;;14.53;9.03;;;16.60;1.00;;;;;;4994578;28;20219;-49
2021/09/05 07:54:57;;;;;;;13.70;8.40;;;16.60;1.00;;;;;;5007114;28;20294;-50
2021/09/05 07:57:24;;;;;;;11.50;8.20;;;16.70;1.00;;;;;;5006353;28;20667;-51
2021/09/05 07:59:51;;;;;;;14.30;8.77;;;16.90;1.00;;;;;;5008511;28;20207;-50
2021/09/05 08:02:18;;;;;;;12.97;8.77;;;17.00;1.00;;;;;;5005038;28;20221;-50
2021/09/05 08:04:45;;;;;;;14.10;8.00;;;17.10;1.00;;;;;;4994278;28;20201;-50
2021/09/05 08:07:11;;;;;;;13.97;8.67;;;17.20;1.00;;;;;;5003237;28;20233;-50
2021/09/05 08:09:38;;;;;;;16.90;8.17;;;17.40;99.90;;;;;;4997966;28;20634;-50
2021/09/05 08:12:05;;;;;;;13.57;7.77;;;17.50;1.00;;;;;;5000790;28;20233;-50
2021/09/05 08:14:34;;;;;;;15.57;8.77;;;17.70;1.00;;;;;;5002873;28;20204;-50
2021/09/05 08:17:01;;;;;;;15.30;8.47;;;17.70;99.90;;;;;;5000423;28;20198;-50
2021/09/05 08:19:28;;;;;;;14.90;8.07;;;17.90;99.90;;;;;;5003274;28;20550;-50
2021/09/05 08:21:54;;;;;;;12.47;8.27;;;18.10;1.00;;;;;;5004775;28;20665;-50
2021/09/05 08:24:21;;;;;;;14.40;7.40;;;17.90;99.90;;;;;;5008163;28;20328;-50
2021/09/05 08:26:48;;;;;;;14.77;8.30;;;18.30;99.90;;;;;;4996800;28;20227;-50
2021/09/05 08:29:15;;;;;;;13.50;8.07;;;18.40;1.00;;;;;;5009841;28;20229;-54
2021/09/05 08:31:41;;;;;;;15.63;8.67;;;18.40;1.00;;;;;;4999759;28;20226;-50
2021/09/05 08:34:08;;;;;;;14.07;8.10;;;18.80;1.00;;;;;;5005852;28;20241;-49
2021/09/05 08:36:35;;;;;;;12.57;8.13;;;18.90;1.00;;;;;;5001580;28;20205;-50
2021/09/05 08:39:02;;;;;;;14.93;9.37;;;18.80;1.00;;;;;;5007390;28;20302;-50
2021/09/05 08:41:29;;;;;;;12.03;7.63;;;19.30;1.00;;;;;;4996236;28;20332;-50
2021/09/05 08:43:57;;;;;;;13.53;7.83;;;19.40;1.00;;;;;;5008845;28;20297;-50
2021/09/05 08:46:24;;;;;;;13.13;7.50;;;19.70;1.00;;;;;;4998910;28;20276;-50
2021/09/05 08:48:51;;;;;;;11.47;7.07;;;19.80;1.00;;;;;;5002740;28;20203;-50
2021/09/05 08:51:18;;;;;;;13.10;8.03;;;20.00;1.00;;;;;;5004871;28;20277;-50
2021/09/05 08:53:45;;;;;;;15.40;7.53;;;20.10;1.00;;;;;;5005011;28;20558;-50
2021/09/05 08:56:12;;;;;;;12.57;7.57;;;20.50;99.90;;;;;;4999439;28;20237;-50
2021/09/05 08:58:39;;;;;;;13.50;8.23;;;20.40;1.00;;;;;;5014473;28;20251;-51
2021/09/05 09:01:20;;;;;;;13.27;7.80;;;20.60;1.00;;;;;;5006529;28;20371;-51
2021/09/05 09:03:48;;;;;;;12.57;7.13;;;20.10;99.90;;;;;;4999828;28;20640;-51
2021/09/05 09:06:19;;;;;;;12.27;7.87;;;20.30;99.90;;;;;;5001865;28;20211;-50
2021/09/05 09:09:00;;;;;;;17.97;8.43;;;20.40;99.90;;;;;;5007710;28;20280;-51
2021/09/05 09:11:31;;;;;;;14.67;8.57;;;20.70;1.00;;;;;;5000588;28;20268;-51
2021/09/05 09:13:58;;;;;;;14.67;8.23;;;20.80;1.00;;;;;;5003995;28;20656;-51
2021/09/05 09:16:34;;;;;;;14.30;8.83;;;20.90;1.00;;;;;;5002915;28;20656;-51
2021/09/05 09:19:03;;;;;;;14.73;9.50;;;21.10;1.00;;;;;;5001589;28;20209;-51
2021/09/05 09:21:37;;;;;;;13.43;8.30;;;21.30;99.90;;;;;;5003075;28;20699;-51
2021/09/05 09:24:17;;;;;;;14.77;9.50;;;21.00;1.00;;;;;;5007577;28;20693;-51
2021/09/05 09:27:05;;;;;;;15.23;8.50;;;21.30;1.00;;;;;;4997315;28;20205;-51
2021/09/05 09:29:36;;;;;;;15.37;8.50;;;21.80;99.90;;;;;;5000352;28;20627;-51
2021/09/05 09:32:20;;;;;;;12.53;7.87;;;21.70;8.20;;;;;;4992353;28;20317;-50
2021/09/05 09:34:48;;;;;;;12.83;7.60;;;21.90;1.00;;;;;;4997191;28;20273;-50
2021/09/05 09:37:16;;;;;;;12.40;7.33;;;21.90;1.00;;;;;;4996522;28;20601;-51
2021/09/05 09:39:51;;;;;;;13.03;7.13;;;21.60;1.00;;;;;;4991587;28;20732;-51
2021/09/05 09:42:34;;;;;;;10.60;7.77;;;21.40;1.00;;;;;;4992006;28;20311;-51
2021/09/05 09:45:11;;;;;;;14.30;7.57;;;21.60;1.00;;;;;;4992402;28;20272;-52
2021/09/05 09:47:46;;;;;;;10.67;6.93;;;21.90;72.40;;;;;;4999430;28;20295;-52
2021/09/05 09:50:14;;;;;;;11.57;7.40;;;22.00;1.00;;;;;;4991499;28;20301;-51
2021/09/05 09:52:43;;;;;;;14.77;7.47;;;22.20;1.00;;;;;;4999542;28;20278;-50
2021/09/05 09:55:11;;;;;;;14.67;7.77;;;22.20;1.00;;;;;;4988015;28;20208;-51
2021/09/05 09:57:38;;;;;;;11.87;7.67;;;21.90;1.00;;;;;;4994895;28;20272;-51
2021/09/05 10:00:07;;;;;;;12.00;7.13;;;21.80;1.00;;;;;;4991048;28;20641;-51
2021/09/05 10:02:37;;;;;;;12.50;7.83;;;21.50;1.00;;;;;;4989945;28;20221;-51
2021/09/05 10:05:05;;;;;;;13.10;7.83;;;21.30;1.00;;;;;;4987340;28;20207;-51
2021/09/05 10:07:33;;;;;;;14.07;7.20;;;21.40;99.90;;;;;;4999844;28;20268;-52
2021/09/05 10:10:05;;;;;;;10.10;7.03;;;21.30;1.00;;;;;;5013436;28;20232;-51
2021/09/05 10:12:33;;;;;;;9.93;6.77;;;21.50;1.00;;;;;;5006157;28;20684;-51
2021/09/05 10:15:00;;;;;;;12.73;6.90;;;21.60;1.00;;;;;;5002541;28;20578;-51
2021/09/05 10:17:28;;;;;;;12.73;7.87;;;21.40;99.90;;;;;;5005998;28;20247;-51
2021/09/05 10:19:55;;;;;;;13.20;7.20;;;21.60;1.00;;;;;;5005532;28;20248;-51
2021/09/05 10:22:30;;;;;;;11.10;7.53;;;21.60;1.00;;;;;;5008490;28;20304;-51
2021/09/05 10:25:01;;;;;;;12.80;7.53;;;21.30;1.00;;;;;;4998185;28;20301;-51
2021/09/05 10:27:30;;;;;;;12.53;7.00;;;21.60;10.90;;;;;;4993860;28;20233;-52
2021/09/05 10:30:07;;;;;;;12.77;8.23;;;21.70;1.00;;;;;;5005030;28;20224;-51
2021/09/05 10:32:44;;;;;;;14.47;8.90;;;21.80;1.00;;;;;;5005647;28;20286;-52
2021/09/05 10:35:26;;;;;;;12.33;7.40;;;21.60;1.00;;;;;;5001553;28;20205;-51
2021/09/05 10:38:11;;;;;;;15.60;8.30;;;21.70;1.00;;;;;;5002698;28;20296;-52
2021/09/05 10:40:39;;;;;;;12.67;8.00;;;21.70;1.00;;;;;;5009782;28;20197;-51
2021/09/05 10:43:05;;;;;;;13.93;7.37;;;21.60;1.00;;;;;;5007090;28;20303;-51
2021/09/05 10:45:35;;;;;;;11.57;6.73;;;21.50;1.00;;;;;;5006790;28;20217;-51
2021/09/05 10:48:22;;;;;;;11.77;6.83;;;21.70;1.00;;;;;;4994584;28;20229;-51
2021/09/05 10:50:50;;;;;;;16.47;7.93;;;21.90;1.00;;;;;;4996100;28;20309;-51
2021/09/05 10:53:18;;;;;;;12.97;7.80;;;21.80;1.00;;;;;;5005845;28;20236;-51
2021/09/05 10:56:11;;;;;;;13.33;7.80;;;21.60;1.00;;;;;;5006496;28;20265;-51
2021/09/05 10:58:45;;;;;;;11.13;7.43;;;21.80;1.00;;;;;;5007591;28;20284;-51
2021/09/05 11:01:19;;;;;;;14.40;7.67;;;22.10;1.00;;;;;;5010482;28;20627;-51
2021/09/05 11:04:25;;;;;;;11.13;6.93;;;22.30;1.00;;;;;;5002811;28;20221;-52
2021/09/05 11:06:57;;;;;;;12.73;7.67;;;22.40;1.00;;;;;;4987382;28;20671;-52
2021/09/05 11:09:24;;;;;;;11.43;7.30;;;22.20;1.00;;;;;;4984413;28;20382;-51
2021/09/05 11:12:25;;;;;;;12.80;8.00;;;22.30;1.00;;;;;;4986981;28;20206;-52
2021/09/05 11:14:54;;;;;;;13.40;7.90;;;22.30;1.00;;;;;;4968307;28;20217;-51
2021/09/05 11:17:32;;;;;;;11.53;7.13;;;22.60;99.90;;;;;;4985969;28;20244;-51
2021/09/05 11:20:11;;;;;;;18.37;8.67;;;22.20;99.90;;;;;;4985170;28;20206;-52
2021/09/05 11:22:44;;;;;;;13.20;7.43;;;22.40;99.90;;;;;;4986395;28;20386;-51
2021/09/05 11:25:21;;;;;;;12.60;7.83;;;22.80;99.90;;;;;;4972763;28;20305;-51
2021/09/05 11:27:54;;;;;;;14.03;7.30;;;23.00;99.90;;;;;;4986838;28;20598;-51
2021/09/05 11:30:24;;;;;;;13.50;8.03;;;23.40;1.00;;;;;;4991787;28;20296;-51
2021/09/05 11:33:06;;;;;;;14.07;7.30;;;23.40;1.00;;;;;;4978927;28;20238;-51
2021/09/05 11:35:38;;;;;;;11.93;7.20;;;23.30;1.00;;;;;;4993092;28;20310;-51
2021/09/05 11:38:05;;;;;;;12.50;8.03;;;23.30;1.00;;;;;;4986044;28;20349;-52
2021/09/05 11:40:40;;;;;;;10.93;7.20;;;23.60;1.00;;;;;;4989418;28;20335;-51
2021/09/05 11:43:07;;;;;;;12.30;7.87;;;24.00;1.00;;;;;;5009062;28;20212;-51
2021/09/05 11:45:38;;;;;;;12.27;8.47;;;24.30;1.00;;;;;;5006122;28;20220;-51
2021/09/05 11:48:07;;;;;;;12.50;7.53;;;24.10;1.00;;;;;;5008081;28;20192;-52
2021/09/05 11:50:37;;;;;;;14.00;7.83;;;24.10;1.00;;;;;;5007782;28;20228;-52
2021/09/05 11:53:05;;;;;;;12.00;8.10;;;24.20;1.00;;;;;;5011605;28;20269;-51
2021/09/05 11:55:32;;;;;;;14.43;8.30;;;24.40;1.00;;;;;;5005517;28;20587;-52
2021/09/05 11:58:05;;;;;;;13.07;7.97;;;24.60;1.00;;;;;;5008234;28;20206;-51
2021/09/05 12:00:40;;;;;;;13.23;7.97;;;25.00;1.00;;;;;;5005791;28;20630;-51
2021/09/05 12:03:13;;;;;;;12.83;7.20;;;25.20;1.00;;;;;;5003073;28;20347;-51
2021/09/05 12:05:41;;;;;;;10.93;7.67;;;25.70;1.00;;;;;;5009378;28;20633;-52
2021/09/05 12:08:08;;;;;;;10.37;7.07;;;26.00;1.00;;;;;;5007820;28;20276;-52
2021/09/05 12:10:36;;;;;;;12.77;7.50;;;25.70;1.00;;;;;;5010125;28;20236;-52
2021/09/05 12:13:09;;;;;;;14.77;8.87;;;25.70;99.90;;;;;;5010555;28;20207;-52
2021/09/05 12:15:46;;;;;;;11.30;7.00;;;25.00;1.00;;;;;;5003548;28;20236;-51
2021/09/05 12:18:20;;;;;;;10.43;7.23;;;25.40;1.00;;;;;;5008389;28;20269;-51
2021/09/05 12:20:49;;;;;;;15.17;6.73;;;26.20;1.00;;;;;;4998877;28;20213;-51
2021/09/05 12:23:24;;;;;;;11.23;7.43;;;25.90;1.00;;;;;;5002904;28;20649;-54
2021/09/05 12:25:52;;;;;;;9.43;6.60;;;25.80;99.90;;;;;;5005631;28;20288;-51
2021/09/05 12:28:31;;;;;;;10.20;6.73;;;26.30;99.90;;;;;;5010805;28;20482;-53
2021/09/05 12:31:00;;;;;;;13.40;6.93;;;26.50;99.90;;;;;;4999749;28;20288;-50
2021/09/05 12:33:27;;;;;;;11.37;7.10;;;25.90;99.90;;;;;;4995942;28;20359;-53
2021/09/05 12:36:06;;;;;;;11.10;7.00;;;25.50;1.00;;;;;;4990075;28;20248;-50
2021/09/05 12:38:35;;;;;;;10.90;6.83;;;26.20;1.00;;;;;;4996717;28;20309;-53
2021/09/05 12:41:08;;;;;;;16.27;7.37;;;26.40;1.00;;;;;;5001740;28;20604;-53
2021/09/05 12:43:41;;;;;;;11.40;6.50;;;26.80;99.90;;;;;;4996890;28;20251;-53